sensor_id;sensor_type;location;lat;lon;timestamp;temperature;humidity
44069;DHT22;29738;51.234;5.484;2022-09-13T00:00:34;18.20;99.90
44069;DHT22;29738;51.234;5.484;2022-09-13T00:03:00;18.20;99.90
44069;DHT22;29738;51.234;5.484;2022-09-13T00:05:26;18.30;99.90
44069;DHT22;29738;51.234;5.484;2022-09-13T00:07:52;18.30;99.90
44069;DHT22;29738;51.234;5.484;2022-09-13T00:10:18;18.10;99.90
44069;DHT22;29738;51.234;5.484;2022-09-13T00:12:44;18.00;99.90
44069;DHT22;29738;51.234;5.484;2022-09-13T00:15:11;18.00;99.90
44069;DHT22;29738;51.234;5.484;2022-09-13T00:17:37;17.90;99.90
44069;DHT22;29738;51.234;5.484;2022-09-13T00:20:03;17.80;99.90
44069;DHT22;29738;51.234;5.484;2022-09-13T00:22:29;17.80;99.90
44069;DHT22;29738;51.234;5.484;2022-09-13T00:24:55;17.90;99.90
44069;DHT22;29738;51.234;5.484;2022-09-13T00:27:21;17.80;99.90
44069;DHT22;29738;51.234;5.484;2022-09-13T00:29:47;17.60;99.90
44069;DHT22;29738;51.234;5.484;2022-09-13T00:32:13;17.80;99.90
44069;DHT22;29738;51.234;5.484;2022-09-13T00:34:40;17.80;99.90
44069;DHT22;29738;51.234;5.484;2022-09-13T00:37:05;18.00;99.90
44069;DHT22;29738;51.234;5.484;2022-09-13T00:39:31;18.00;99.90
44069;DHT22;29738;51.234;5.484;2022-09-13T00:41:57;17.90;99.90
44069;DHT22;29738;51.234;5.484;2022-09-13T00:47:54;18.10;99.90
44069;DHT22;29738;51.234;5.484;2022-09-13T00:50:28;18.10;99.90
44069;DHT22;29738;51.234;5.484;2022-09-13T00:53:12;18.10;99.90
44069;DHT22;29738;51.234;5.484;2022-09-13T00:55:49;18.10;99.90
44069;DHT22;29738;51.234;5.484;2022-09-13T00:58:25;18.00;99.90
44069;DHT22;29738;51.234;5.484;2022-09-13T01:00:52;18.00;99.90
44069;DHT22;29738;51.234;5.484;2022-09-13T01:03:22;18.00;99.90
44069;DHT22;29738;51.234;5.484;2022-09-13T01:05:56;18.10;99.90
44069;DHT22;29738;51.234;5.484;2022-09-13T01:08:23;18.10;99.90
44069;DHT22;29738;51.234;5.484;2022-09-13T01:10:53;18.10;99.90
44069;DHT22;29738;51.234;5.484;2022-09-13T01:13:23;18.00;99.90
44069;DHT22;29738;51.234;5.484;2022-09-13T01:15:49;17.90;99.90
44069;DHT22;29738;51.234;5.484;2022-09-13T01:18:16;18.00;99.90
44069;DHT22;29738;51.234;5.484;2022-09-13T01:34:33;17.60;99.90
44069;DHT22;29738;51.234;5.484;2022-09-13T01:42:35;17.80;99.90
44069;DHT22;29738;51.234;5.484;2022-09-13T01:45:26;17.90;99.90
44069;DHT22;29738;51.234;5.484;2022-09-13T01:48:16;17.90;99.90
44069;DHT22;29738;51.234;5.484;2022-09-13T01:51:01;18.00;99.90
44069;DHT22;29738;51.234;5.484;2022-09-13T01:56:53;18.40;99.90
44069;DHT22;29738;51.234;5.484;2022-09-13T02:02:35;18.60;99.90
44069;DHT22;29738;51.234;5.484;2022-09-13T02:07:51;18.60;99.90
44069;DHT22;29738;51.234;5.484;2022-09-13T02:13:23;18.40;99.90
44069;DHT22;29738;51.234;5.484;2022-09-13T02:15:55;18.60;99.90
44069;DHT22;29738;51.234;5.484;2022-09-13T02:18:30;18.50;99.90
44069;DHT22;29738;51.234;5.484;2022-09-13T02:21:01;18.50;99.90
44069;DHT22;29738;51.234;5.484;2022-09-13T02:23:33;18.40;99.90
44069;DHT22;29738;51.234;5.484;2022-09-13T02:26:03;18.60;99.90
44069;DHT22;29738;51.234;5.484;2022-09-13T02:28:37;18.50;99.90
44069;DHT22;29738;51.234;5.484;2022-09-13T02:31:07;18.40;99.90
44069;DHT22;29738;51.234;5.484;2022-09-13T02:33:40;18.40;99.90
44069;DHT22;29738;51.234;5.484;2022-09-13T02:36:13;18.30;99.90
44069;DHT22;29738;51.234;5.484;2022-09-13T02:39:01;18.40;99.90
44069;DHT22;29738;51.234;5.484;2022-09-13T02:41:38;18.40;99.90
44069;DHT22;29738;51.234;5.484;2022-09-13T02:44:08;18.20;99.90
44069;DHT22;29738;51.234;5.484;2022-09-13T02:55:19;18.50;99.90
44069;DHT22;29738;51.234;5.484;2022-09-13T03:00:18;18.50;99.90
44069;DHT22;29738;51.234;5.484;2022-09-13T03:02:46;18.40;99.90
44069;DHT22;29738;51.234;5.484;2022-09-13T03:05:13;18.30;99.90
44069;DHT22;29738;51.234;5.484;2022-09-13T03:07:38;18.30;99.90
44069;DHT22;29738;51.234;5.484;2022-09-13T03:10:07;18.40;99.90
44069;DHT22;29738;51.234;5.484;2022-09-13T03:13:02;18.40;99.90
44069;DHT22;29738;51.234;5.484;2022-09-13T03:24:19;18.50;99.90
44069;DHT22;29738;51.234;5.484;2022-09-13T03:30:08;18.50;99.90
44069;DHT22;29738;51.234;5.484;2022-09-13T03:32:47;18.40;99.90
44069;DHT22;29738;51.234;5.484;2022-09-13T03:35:44;18.30;99.90
44069;DHT22;29738;51.234;5.484;2022-09-13T03:38:20;18.30;99.90
44069;DHT22;29738;51.234;5.484;2022-09-13T03:40:59;18.40;99.90
44069;DHT22;29738;51.234;5.484;2022-09-13T03:48:45;18.30;99.90
44069;DHT22;29738;51.234;5.484;2022-09-13T03:51:11;18.40;99.90
44069;DHT22;29738;51.234;5.484;2022-09-13T03:53:42;18.50;99.90
44069;DHT22;29738;51.234;5.484;2022-09-13T03:56:15;18.50;99.90
44069;DHT22;29738;51.234;5.484;2022-09-13T03:58:41;18.40;99.90
44069;DHT22;29738;51.234;5.484;2022-09-13T04:01:07;18.30;99.90
44069;DHT22;29738;51.234;5.484;2022-09-13T04:03:35;18.10;99.90
44069;DHT22;29738;51.234;5.484;2022-09-13T04:06:01;18.10;99.90
44069;DHT22;29738;51.234;5.484;2022-09-13T04:08:27;18.20;99.90
44069;DHT22;29738;51.234;5.484;2022-09-13T04:10:53;18.00;99.90
44069;DHT22;29738;51.234;5.484;2022-09-13T04:13:19;17.90;99.90
44069;DHT22;29738;51.234;5.484;2022-09-13T04:15:47;17.90;99.90
44069;DHT22;29738;51.234;5.484;2022-09-13T04:18:14;17.90;99.90
44069;DHT22;29738;51.234;5.484;2022-09-13T04:20:40;18.20;99.90
44069;DHT22;29738;51.234;5.484;2022-09-13T04:23:06;18.50;99.90
44069;DHT22;29738;51.234;5.484;2022-09-13T04:25:32;18.40;99.90
44069;DHT22;29738;51.234;5.484;2022-09-13T04:27:58;18.20;99.90
44069;DHT22;29738;51.234;5.484;2022-09-13T04:30:27;18.10;99.90
44069;DHT22;29738;51.234;5.484;2022-09-13T04:32:53;18.10;99.90
44069;DHT22;29738;51.234;5.484;2022-09-13T04:35:21;18.00;99.90
44069;DHT22;29738;51.234;5.484;2022-09-13T04:37:47;18.40;99.90
44069;DHT22;29738;51.234;5.484;2022-09-13T04:40:13;18.40;99.90
44069;DHT22;29738;51.234;5.484;2022-09-13T04:42:39;18.40;99.90
44069;DHT22;29738;51.234;5.484;2022-09-13T04:45:05;18.10;99.90
44069;DHT22;29738;51.234;5.484;2022-09-13T04:47:31;17.90;99.90
44069;DHT22;29738;51.234;5.484;2022-09-13T04:49:57;17.90;99.90
44069;DHT22;29738;51.234;5.484;2022-09-13T04:52:23;17.80;99.90
44069;DHT22;29738;51.234;5.484;2022-09-13T04:54:49;18.00;99.90
44069;DHT22;29738;51.234;5.484;2022-09-13T04:57:15;18.30;99.90
44069;DHT22;29738;51.234;5.484;2022-09-13T04:59:41;18.20;99.90
44069;DHT22;29738;51.234;5.484;2022-09-13T05:02:08;18.30;99.90
44069;DHT22;29738;51.234;5.484;2022-09-13T05:04:34;18.40;99.90
44069;DHT22;29738;51.234;5.484;2022-09-13T05:06:59;18.50;99.90
44069;DHT22;29738;51.234;5.484;2022-09-13T05:09:25;18.40;99.90
44069;DHT22;29738;51.234;5.484;2022-09-13T05:11:51;18.50;99.90
44069;DHT22;29738;51.234;5.484;2022-09-13T05:14:17;18.40;99.90
44069;DHT22;29738;51.234;5.484;2022-09-13T05:16:43;18.40;99.90
44069;DHT22;29738;51.234;5.484;2022-09-13T05:19:10;18.50;99.90
44069;DHT22;29738;51.234;5.484;2022-09-13T05:21:36;18.30;99.90
44069;DHT22;29738;51.234;5.484;2022-09-13T05:24:03;18.20;99.90
44069;DHT22;29738;51.234;5.484;2022-09-13T05:26:29;18.20;99.90
44069;DHT22;29738;51.234;5.484;2022-09-13T05:28:59;18.10;99.90
44069;DHT22;29738;51.234;5.484;2022-09-13T05:31:27;18.00;99.90
44069;DHT22;29738;51.234;5.484;2022-09-13T05:33:58;18.00;99.90
44069;DHT22;29738;51.234;5.484;2022-09-13T05:36:24;18.10;99.90
44069;DHT22;29738;51.234;5.484;2022-09-13T05:38:52;18.20;99.90
44069;DHT22;29738;51.234;5.484;2022-09-13T05:41:18;18.30;99.90
44069;DHT22;29738;51.234;5.484;2022-09-13T05:43:43;18.30;99.90
44069;DHT22;29738;51.234;5.484;2022-09-13T05:46:14;18.40;99.90
44069;DHT22;29738;51.234;5.484;2022-09-13T05:48:41;18.40;99.90
44069;DHT22;29738;51.234;5.484;2022-09-13T05:51:12;18.40;99.90
44069;DHT22;29738;51.234;5.484;2022-09-13T05:53:39;18.50;99.90
44069;DHT22;29738;51.234;5.484;2022-09-13T05:56:10;18.50;99.90
44069;DHT22;29738;51.234;5.484;2022-09-13T05:58:41;18.50;99.90
44069;DHT22;29738;51.234;5.484;2022-09-13T06:01:08;18.70;99.90
44069;DHT22;29738;51.234;5.484;2022-09-13T06:03:34;18.70;99.90
44069;DHT22;29738;51.234;5.484;2022-09-13T06:06:00;18.80;99.90
44069;DHT22;29738;51.234;5.484;2022-09-13T06:08:28;18.80;99.90
44069;DHT22;29738;51.234;5.484;2022-09-13T06:11:05;18.60;99.90
44069;DHT22;29738;51.234;5.484;2022-09-13T06:13:31;18.60;99.90
44069;DHT22;29738;51.234;5.484;2022-09-13T06:16:00;18.70;99.90
44069;DHT22;29738;51.234;5.484;2022-09-13T06:18:26;18.70;99.90
44069;DHT22;29738;51.234;5.484;2022-09-13T06:21:04;18.80;99.90
44069;DHT22;29738;51.234;5.484;2022-09-13T06:23:30;18.80;99.90
44069;DHT22;29738;51.234;5.484;2022-09-13T06:26:07;18.90;99.90
44069;DHT22;29738;51.234;5.484;2022-09-13T06:28:34;18.90;99.90
44069;DHT22;29738;51.234;5.484;2022-09-13T06:31:05;19.00;99.90
44069;DHT22;29738;51.234;5.484;2022-09-13T06:33:31;19.30;99.90
44069;DHT22;29738;51.234;5.484;2022-09-13T06:36:03;19.40;99.90
44069;DHT22;29738;51.234;5.484;2022-09-13T06:38:29;19.40;99.90
44069;DHT22;29738;51.234;5.484;2022-09-13T06:40:59;19.40;99.90
44069;DHT22;29738;51.234;5.484;2022-09-13T06:43:25;19.50;99.90
44069;DHT22;29738;51.234;5.484;2022-09-13T06:45:51;19.60;99.90
44069;DHT22;29738;51.234;5.484;2022-09-13T06:48:18;19.70;99.90
44069;DHT22;29738;51.234;5.484;2022-09-13T06:50:44;20.00;99.90
44069;DHT22;29738;51.234;5.484;2022-09-13T06:53:10;20.10;99.90
44069;DHT22;29738;51.234;5.484;2022-09-13T06:55:37;20.20;99.90
44069;DHT22;29738;51.234;5.484;2022-09-13T06:58:03;20.50;99.90
44069;DHT22;29738;51.234;5.484;2022-09-13T07:00:28;20.50;99.90
44069;DHT22;29738;51.234;5.484;2022-09-13T07:02:54;20.20;99.90
44069;DHT22;29738;51.234;5.484;2022-09-13T07:05:20;19.90;99.90
44069;DHT22;29738;51.234;5.484;2022-09-13T07:07:46;19.90;99.90
44069;DHT22;29738;51.234;5.484;2022-09-13T07:10:12;20.20;99.90
44069;DHT22;29738;51.234;5.484;2022-09-13T07:12:40;20.40;99.90
44069;DHT22;29738;51.234;5.484;2022-09-13T07:15:07;20.30;99.90
44069;DHT22;29738;51.234;5.484;2022-09-13T07:17:33;20.60;99.90
44069;DHT22;29738;51.234;5.484;2022-09-13T07:19:59;20.80;99.90
44069;DHT22;29738;51.234;5.484;2022-09-13T07:22:25;20.60;99.90
44069;DHT22;29738;51.234;5.484;2022-09-13T07:24:52;20.50;99.90
44069;DHT22;29738;51.234;5.484;2022-09-13T07:27:18;20.70;99.90
44069;DHT22;29738;51.234;5.484;2022-09-13T07:29:44;20.80;99.90
44069;DHT22;29738;51.234;5.484;2022-09-13T07:32:09;21.00;99.90
44069;DHT22;29738;51.234;5.484;2022-09-13T07:34:35;21.20;99.90
44069;DHT22;29738;51.234;5.484;2022-09-13T07:37:01;21.20;99.90
44069;DHT22;29738;51.234;5.484;2022-09-13T07:39:27;21.20;99.90
44069;DHT22;29738;51.234;5.484;2022-09-13T07:41:52;21.40;99.90
44069;DHT22;29738;51.234;5.484;2022-09-13T07:44:18;21.60;99.90
44069;DHT22;29738;51.234;5.484;2022-09-13T07:46:44;21.70;99.90
44069;DHT22;29738;51.234;5.484;2022-09-13T07:49:15;21.80;99.90
44069;DHT22;29738;51.234;5.484;2022-09-13T07:51:42;22.00;99.90
44069;DHT22;29738;51.234;5.484;2022-09-13T07:54:14;22.30;99.90
44069;DHT22;29738;51.234;5.484;2022-09-13T07:56:42;22.50;99.90
44069;DHT22;29738;51.234;5.484;2022-09-13T07:59:14;22.50;99.90
44069;DHT22;29738;51.234;5.484;2022-09-13T08:01:43;22.50;99.90
44069;DHT22;29738;51.234;5.484;2022-09-13T08:04:14;22.60;99.90
44069;DHT22;29738;51.234;5.484;2022-09-13T08:06:42;22.60;99.90
44069;DHT22;29738;51.234;5.484;2022-09-13T08:09:09;22.20;99.90
44069;DHT22;29738;51.234;5.484;2022-09-13T08:11:43;22.20;99.90
44069;DHT22;29738;51.234;5.484;2022-09-13T08:14:13;22.50;99.90
44069;DHT22;29738;51.234;5.484;2022-09-13T08:16:39;22.50;99.90
44069;DHT22;29738;51.234;5.484;2022-09-13T08:19:09;22.50;99.90
44069;DHT22;29738;51.234;5.484;2022-09-13T08:21:37;22.40;99.90
44069;DHT22;29738;51.234;5.484;2022-09-13T08:24:04;22.20;99.90
44069;DHT22;29738;51.234;5.484;2022-09-13T08:26:31;22.20;99.90
44069;DHT22;29738;51.234;5.484;2022-09-13T08:29:00;22.50;99.90
44069;DHT22;29738;51.234;5.484;2022-09-13T08:31:26;22.70;99.90
44069;DHT22;29738;51.234;5.484;2022-09-13T08:33:52;22.70;99.90
44069;DHT22;29738;51.234;5.484;2022-09-13T08:36:19;22.90;99.90
44069;DHT22;29738;51.234;5.484;2022-09-13T08:38:50;23.10;99.90
44069;DHT22;29738;51.234;5.484;2022-09-13T08:43:53;23.30;99.90
44069;DHT22;29738;51.234;5.484;2022-09-13T08:46:47;23.30;99.90
44069;DHT22;29738;51.234;5.484;2022-09-13T08:49:21;23.20;99.90
44069;DHT22;29738;51.234;5.484;2022-09-13T08:51:53;23.20;99.90
44069;DHT22;29738;51.234;5.484;2022-09-13T08:54:19;23.30;99.90
44069;DHT22;29738;51.234;5.484;2022-09-13T08:56:58;23.80;99.90
44069;DHT22;29738;51.234;5.484;2022-09-13T08:59:49;24.00;99.90
44069;DHT22;29738;51.234;5.484;2022-09-13T09:05:20;23.90;99.90
44069;DHT22;29738;51.234;5.484;2022-09-13T09:10:32;23.90;99.90
44069;DHT22;29738;51.234;5.484;2022-09-13T09:13:36;24.10;99.90
44069;DHT22;29738;51.234;5.484;2022-09-13T09:19:12;24.50;99.90
44069;DHT22;29738;51.234;5.484;2022-09-13T09:21:42;24.30;99.90
44069;DHT22;29738;51.234;5.484;2022-09-13T09:24:19;24.30;99.90
44069;DHT22;29738;51.234;5.484;2022-09-13T09:26:45;24.40;99.90
44069;DHT22;29738;51.234;5.484;2022-09-13T09:29:25;24.60;99.90
44069;DHT22;29738;51.234;5.484;2022-09-13T09:37:21;25.00;99.90
44069;DHT22;29738;51.234;5.484;2022-09-13T09:39:48;24.80;99.90
44069;DHT22;29738;51.234;5.484;2022-09-13T09:42:19;25.10;99.90
44069;DHT22;29738;51.234;5.484;2022-09-13T09:44:49;25.20;99.90
44069;DHT22;29738;51.234;5.484;2022-09-13T09:47:18;24.90;99.90
44069;DHT22;29738;51.234;5.484;2022-09-13T09:49:54;25.10;99.90
44069;DHT22;29738;51.234;5.484;2022-09-13T09:52:54;25.30;99.90
44069;DHT22;29738;51.234;5.484;2022-09-13T09:58:46;25.70;99.90
44069;DHT22;29738;51.234;5.484;2022-09-13T10:04:01;25.70;99.90
44069;DHT22;29738;51.234;5.484;2022-09-13T10:06:29;25.40;99.90
44069;DHT22;29738;51.234;5.484;2022-09-13T10:08:59;25.20;99.90
44069;DHT22;29738;51.234;5.484;2022-09-13T10:11:51;25.30;99.90
44069;DHT22;29738;51.234;5.484;2022-09-13T10:14:44;25.10;99.90
44069;DHT22;29738;51.234;5.484;2022-09-13T10:17:23;25.30;99.90
44069;DHT22;29738;51.234;5.484;2022-09-13T10:22:24;25.30;99.90
44069;DHT22;29738;51.234;5.484;2022-09-13T10:24:51;25.30;99.90
44069;DHT22;29738;51.234;5.484;2022-09-13T10:27:38;25.50;99.90
44069;DHT22;29738;51.234;5.484;2022-09-13T10:33:33;25.50;99.90
44069;DHT22;29738;51.234;5.484;2022-09-13T10:36:06;25.80;99.90
44069;DHT22;29738;51.234;5.484;2022-09-13T10:38:39;26.00;99.90
44069;DHT22;29738;51.234;5.484;2022-09-13T10:41:08;25.70;99.90
44069;DHT22;29738;51.234;5.484;2022-09-13T10:43:36;25.30;99.90
44069;DHT22;29738;51.234;5.484;2022-09-13T10:46:04;25.00;99.90
44069;DHT22;29738;51.234;5.484;2022-09-13T10:48:44;25.20;99.90
44069;DHT22;29738;51.234;5.484;2022-09-13T10:54:05;25.90;99.90
44069;DHT22;29738;51.234;5.484;2022-09-13T10:56:31;25.80;99.90
44069;DHT22;29738;51.234;5.484;2022-09-13T10:59:29;25.40;99.90
44069;DHT22;29738;51.234;5.484;2022-09-13T11:12:30;26.20;99.90
44069;DHT22;29738;51.234;5.484;2022-09-13T11:18:12;26.30;99.90
44069;DHT22;29738;51.234;5.484;2022-09-13T11:29:35;25.20;99.90
44069;DHT22;29738;51.234;5.484;2022-09-13T11:31:58;25.00;99.90
44069;DHT22;29738;51.234;5.484;2022-09-13T11:37:05;25.00;99.90
44069;DHT22;29738;51.234;5.484;2022-09-13T11:39:58;25.10;99.90
44069;DHT22;29738;51.234;5.484;2022-09-13T11:42:59;24.70;99.90
44069;DHT22;29738;51.234;5.484;2022-09-13T11:45:30;24.80;99.90
44069;DHT22;29738;51.234;5.484;2022-09-13T11:48:15;24.70;99.90
44069;DHT22;29738;51.234;5.484;2022-09-13T11:54:28;25.30;99.90
44069;DHT22;29738;51.234;5.484;2022-09-13T11:56:58;25.40;99.90
44069;DHT22;29738;51.234;5.484;2022-09-13T12:02:45;25.40;99.90
44069;DHT22;29738;51.234;5.484;2022-09-13T12:05:18;25.70;99.90
44069;DHT22;29738;51.234;5.484;2022-09-13T12:11:09;26.40;99.90
44069;DHT22;29738;51.234;5.484;2022-09-13T12:13:16;26.20;99.90
44069;DHT22;29738;51.234;5.484;2022-09-13T12:15:45;26.20;99.90
44069;DHT22;29738;51.234;5.484;2022-09-13T12:18:31;26.10;99.90
44069;DHT22;29738;51.234;5.484;2022-09-13T12:21:11;26.20;99.90
44069;DHT22;29738;51.234;5.484;2022-09-13T12:23:44;26.40;99.90
44069;DHT22;29738;51.234;5.484;2022-09-13T12:26:19;26.30;99.90
44069;DHT22;29738;51.234;5.484;2022-09-13T12:28:57;25.80;99.90
44069;DHT22;29738;51.234;5.484;2022-09-13T12:31:29;25.60;99.90
44069;DHT22;29738;51.234;5.484;2022-09-13T12:33:56;25.70;99.90
44069;DHT22;29738;51.234;5.484;2022-09-13T12:47:42;26.40;99.90
44069;DHT22;29738;51.234;5.484;2022-09-13T12:50:38;26.50;99.90
44069;DHT22;29738;51.234;5.484;2022-09-13T12:56:33;26.90;99.90
44069;DHT22;29738;51.234;5.484;2022-09-13T13:02:31;26.70;99.90
44069;DHT22;29738;51.234;5.484;2022-09-13T13:05:17;26.70;99.90
44069;DHT22;29738;51.234;5.484;2022-09-13T13:07:55;27.20;99.90
44069;DHT22;29738;51.234;5.484;2022-09-13T13:10:33;27.10;99.90
44069;DHT22;29738;51.234;5.484;2022-09-13T13:13:25;27.10;99.90
44069;DHT22;29738;51.234;5.484;2022-09-13T13:15:59;27.40;99.90
44069;DHT22;29738;51.234;5.484;2022-09-13T13:18:42;28.00;99.90
44069;DHT22;29738;51.234;5.484;2022-09-13T13:21:25;28.10;99.90
44069;DHT22;29738;51.234;5.484;2022-09-13T13:29:15;27.90;99.90
44069;DHT22;29738;51.234;5.484;2022-09-13T13:31:45;28.00;99.90
44069;DHT22;29738;51.234;5.484;2022-09-13T13:39:32;26.50;99.90
44069;DHT22;29738;51.234;5.484;2022-09-13T13:42:50;26.70;99.90
44069;DHT22;29738;51.234;5.484;2022-09-13T13:45:25;27.00;99.90
44069;DHT22;29738;51.234;5.484;2022-09-13T13:48:06;27.00;99.90
44069;DHT22;29738;51.234;5.484;2022-09-13T13:50:33;27.20;99.90
44069;DHT22;29738;51.234;5.484;2022-09-13T13:53:17;27.50;99.90
44069;DHT22;29738;51.234;5.484;2022-09-13T13:55:48;28.10;99.90
44069;DHT22;29738;51.234;5.484;2022-09-13T13:58:42;28.30;99.90
44069;DHT22;29738;51.234;5.484;2022-09-13T14:01:15;28.30;99.90
44069;DHT22;29738;51.234;5.484;2022-09-13T14:06:34;28.10;99.90
44069;DHT22;29738;51.234;5.484;2022-09-13T14:20:18;26.80;99.90
44069;DHT22;29738;51.234;5.484;2022-09-13T14:22:46;26.90;99.90
44069;DHT22;29738;51.234;5.484;2022-09-13T14:25:30;26.90;99.90
44069;DHT22;29738;51.234;5.484;2022-09-13T14:27:57;27.00;99.90
44069;DHT22;29738;51.234;5.484;2022-09-13T14:30:37;27.10;99.90
44069;DHT22;29738;51.234;5.484;2022-09-13T14:33:04;27.10;99.90
44069;DHT22;29738;51.234;5.484;2022-09-13T14:35:33;27.10;99.90
44069;DHT22;29738;51.234;5.484;2022-09-13T14:40:36;27.00;99.90
44069;DHT22;29738;51.234;5.484;2022-09-13T14:43:15;26.50;99.90
44069;DHT22;29738;51.234;5.484;2022-09-13T14:45:44;26.60;99.90
44069;DHT22;29738;51.234;5.484;2022-09-13T14:48:21;26.70;99.90
44069;DHT22;29738;51.234;5.484;2022-09-13T14:51:16;26.90;99.90
44069;DHT22;29738;51.234;5.484;2022-09-13T14:53:46;26.90;99.90
44069;DHT22;29738;51.234;5.484;2022-09-13T14:56:17;27.00;99.90
44069;DHT22;29738;51.234;5.484;2022-09-13T14:58:48;27.00;99.90
44069;DHT22;29738;51.234;5.484;2022-09-13T15:01:25;26.90;99.90
44069;DHT22;29738;51.234;5.484;2022-09-13T15:03:55;27.00;99.90
44069;DHT22;29738;51.234;5.484;2022-09-13T15:06:28;26.80;99.90
44069;DHT22;29738;51.234;5.484;2022-09-13T15:14:34;26.90;99.90
44069;DHT22;29738;51.234;5.484;2022-09-13T15:17:11;26.70;99.90
44069;DHT22;29738;51.234;5.484;2022-09-13T15:19:49;26.40;99.90
44069;DHT22;29738;51.234;5.484;2022-09-13T15:22:23;26.40;99.90
44069;DHT22;29738;51.234;5.484;2022-09-13T15:24:55;26.40;99.90
44069;DHT22;29738;51.234;5.484;2022-09-13T15:27:25;26.40;99.90
44069;DHT22;29738;51.234;5.484;2022-09-13T15:29:59;26.30;99.90
44069;DHT22;29738;51.234;5.484;2022-09-13T15:35:37;25.80;99.90
44069;DHT22;29738;51.234;5.484;2022-09-13T15:38:26;25.70;99.90
44069;DHT22;29738;51.234;5.484;2022-09-13T15:41:15;25.80;99.90
44069;DHT22;29738;51.234;5.484;2022-09-13T15:43:42;25.60;99.90
44069;DHT22;29738;51.234;5.484;2022-09-13T15:46:13;25.70;99.90
44069;DHT22;29738;51.234;5.484;2022-09-13T15:48:44;25.70;99.90
44069;DHT22;29738;51.234;5.484;2022-09-13T15:51:14;25.70;99.90
44069;DHT22;29738;51.234;5.484;2022-09-13T15:53:43;25.60;99.90
44069;DHT22;29738;51.234;5.484;2022-09-13T15:56:13;25.70;99.90
44069;DHT22;29738;51.234;5.484;2022-09-13T15:58:39;25.60;99.90
44069;DHT22;29738;51.234;5.484;2022-09-13T16:01:05;25.50;99.90
44069;DHT22;29738;51.234;5.484;2022-09-13T16:03:31;25.40;99.90
44069;DHT22;29738;51.234;5.484;2022-09-13T16:05:58;25.30;99.90
44069;DHT22;29738;51.234;5.484;2022-09-13T16:08:24;25.30;99.90
44069;DHT22;29738;51.234;5.484;2022-09-13T16:10:50;25.40;99.90
44069;DHT22;29738;51.234;5.484;2022-09-13T16:13:16;25.40;99.90
44069;DHT22;29738;51.234;5.484;2022-09-13T16:15:42;25.10;99.90
44069;DHT22;29738;51.234;5.484;2022-09-13T16:18:08;25.30;99.90
44069;DHT22;29738;51.234;5.484;2022-09-13T16:20:35;25.20;99.90
44069;DHT22;29738;51.234;5.484;2022-09-13T16:23:01;25.10;99.90
44069;DHT22;29738;51.234;5.484;2022-09-13T16:25:27;25.00;99.90
44069;DHT22;29738;51.234;5.484;2022-09-13T16:27:53;25.00;99.90
44069;DHT22;29738;51.234;5.484;2022-09-13T16:30:20;24.90;99.90
44069;DHT22;29738;51.234;5.484;2022-09-13T16:32:47;24.70;99.90
44069;DHT22;29738;51.234;5.484;2022-09-13T16:35:13;24.90;99.90
44069;DHT22;29738;51.234;5.484;2022-09-13T16:37:41;24.60;99.90
44069;DHT22;29738;51.234;5.484;2022-09-13T16:40:08;24.50;99.90
44069;DHT22;29738;51.234;5.484;2022-09-13T16:42:35;24.20;99.90
44069;DHT22;29738;51.234;5.484;2022-09-13T16:45:01;24.20;99.90
44069;DHT22;29738;51.234;5.484;2022-09-13T16:47:27;24.10;99.90
44069;DHT22;29738;51.234;5.484;2022-09-13T16:49:53;24.10;99.90
44069;DHT22;29738;51.234;5.484;2022-09-13T16:52:19;24.00;99.90
44069;DHT22;29738;51.234;5.484;2022-09-13T16:54:44;24.00;99.90
44069;DHT22;29738;51.234;5.484;2022-09-13T16:57:14;23.90;99.90
44069;DHT22;29738;51.234;5.484;2022-09-13T16:59:39;23.90;99.90
44069;DHT22;29738;51.234;5.484;2022-09-13T17:02:10;23.80;99.90
44069;DHT22;29738;51.234;5.484;2022-09-13T17:04:36;23.70;99.90
44069;DHT22;29738;51.234;5.484;2022-09-13T17:07:02;23.80;99.90
44069;DHT22;29738;51.234;5.484;2022-09-13T17:09:31;24.00;99.90
44069;DHT22;29738;51.234;5.484;2022-09-13T17:11:57;24.00;99.90
44069;DHT22;29738;51.234;5.484;2022-09-13T17:14:23;24.00;99.90
44069;DHT22;29738;51.234;5.484;2022-09-13T17:16:51;23.70;99.90
44069;DHT22;29738;51.234;5.484;2022-09-13T17:19:20;23.60;99.90
44069;DHT22;29738;51.234;5.484;2022-09-13T17:21:47;23.50;99.90
44069;DHT22;29738;51.234;5.484;2022-09-13T17:24:13;23.50;99.90
44069;DHT22;29738;51.234;5.484;2022-09-13T17:26:39;23.20;99.90
44069;DHT22;29738;51.234;5.484;2022-09-13T17:29:05;22.80;99.90
44069;DHT22;29738;51.234;5.484;2022-09-13T17:31:31;22.90;99.90
44069;DHT22;29738;51.234;5.484;2022-09-13T17:33:57;22.90;99.90
44069;DHT22;29738;51.234;5.484;2022-09-13T17:36:23;22.90;99.90
44069;DHT22;29738;51.234;5.484;2022-09-13T17:38:53;22.90;99.90
44069;DHT22;29738;51.234;5.484;2022-09-13T17:41:19;22.90;99.90
44069;DHT22;29738;51.234;5.484;2022-09-13T17:43:46;23.00;99.90
44069;DHT22;29738;51.234;5.484;2022-09-13T17:46:14;23.10;99.90
44069;DHT22;29738;51.234;5.484;2022-09-13T17:48:41;23.10;99.90
44069;DHT22;29738;51.234;5.484;2022-09-13T17:51:10;23.20;99.90
44069;DHT22;29738;51.234;5.484;2022-09-13T17:53:56;23.10;99.90
44069;DHT22;29738;51.234;5.484;2022-09-13T17:56:27;23.00;99.90
44069;DHT22;29738;51.234;5.484;2022-09-13T17:59:18;22.90;99.90
44069;DHT22;29738;51.234;5.484;2022-09-13T18:01:46;23.00;99.90
44069;DHT22;29738;51.234;5.484;2022-09-13T18:04:14;23.00;99.90
44069;DHT22;29738;51.234;5.484;2022-09-13T18:06:40;23.00;99.90
44069;DHT22;29738;51.234;5.484;2022-09-13T18:09:07;23.10;99.90
44069;DHT22;29738;51.234;5.484;2022-09-13T18:11:34;23.30;99.90
44069;DHT22;29738;51.234;5.484;2022-09-13T18:14:01;23.40;99.90
44069;DHT22;29738;51.234;5.484;2022-09-13T18:16:27;23.40;99.90
44069;DHT22;29738;51.234;5.484;2022-09-13T18:18:54;23.30;99.90
44069;DHT22;29738;51.234;5.484;2022-09-13T18:21:22;22.90;99.90
44069;DHT22;29738;51.234;5.484;2022-09-13T18:23:50;22.70;99.90
44069;DHT22;29738;51.234;5.484;2022-09-13T18:26:21;22.50;99.90
44069;DHT22;29738;51.234;5.484;2022-09-13T18:28:52;22.50;99.90
44069;DHT22;29738;51.234;5.484;2022-09-13T18:31:18;22.40;99.90
44069;DHT22;29738;51.234;5.484;2022-09-13T18:33:44;22.50;99.90
44069;DHT22;29738;51.234;5.484;2022-09-13T18:36:13;22.40;99.90
44069;DHT22;29738;51.234;5.484;2022-09-13T18:38:40;22.50;99.90
44069;DHT22;29738;51.234;5.484;2022-09-13T18:41:12;22.30;99.90
44069;DHT22;29738;51.234;5.484;2022-09-13T18:43:39;22.50;99.90
44069;DHT22;29738;51.234;5.484;2022-09-13T18:46:10;22.40;99.90
44069;DHT22;29738;51.234;5.484;2022-09-13T18:48:38;22.40;99.90
44069;DHT22;29738;51.234;5.484;2022-09-13T18:51:08;22.40;99.90
44069;DHT22;29738;51.234;5.484;2022-09-13T18:53:34;22.40;99.90
44069;DHT22;29738;51.234;5.484;2022-09-13T18:56:06;22.40;99.90